Sebeka, Minnesota
Current Conditions -  °F | °C
As of 8:35 PM on Friday 28 Nov 2014 (Local Time) from KADC Reporting Station
Overcast Overcast  
Wind Chill:   Ceiling: 1300
Heat Index: 16°   Visibility: 10mi
Dew Point: 10°   Wind: 9mph
Humidity: 79%   Direction: 140°SE
Pressure: 29.7"   Gusts: NA
Location:  46.63°N, 95.09°W
Report Text: KADC 290235Z AUTO 14008KT 10SM OVC013 M09/M12 A2970 RMK AO2
Loading
Personal Weather Stations






























Interactive Weather Map New forecast layout! Learn more

10-Day Weather Forecast

Advertisements
Track Severe Weather on mobile